EPWA/WAW METAR and TAF weather

Enter ICAO airport designator
Station Type Date Time Source
EPWA METAR 2021/07/30 08:00 UTC NOAA

EPWA 300800Z 25006KT 9999 FEW043 23/13 Q1010 NOSIG


Station Type Date Time Source
EPWA Decoded METAR 2021/07/30 08:00 UTC NOAA

Warszawa-Okecie, Poland (EPWA) 52-10N 020-58E 107M
Jul 30, 2021 - 04:00 AM EDT / 2021.07.30 0800 UTC
Wind: from the WSW (250 degrees) at 7 MPH (6 KT):0
Visibility: greater than 7 mile(s):0
Sky conditions: mostly clear
Temperature: 73 F (23 C)
Dew Point: 55 F (13 C)
Relative Humidity: 53%
Pressure (altimeter): 29.83 in. Hg (1010 hPa)
ob: EPWA 300800Z 25006KT 9999 FEW043 23/13 Q1010 NOSIG
cycle: 8

Station Type Date Time Source
EPWA TAF 2021/07/30 06:37 UTC NOAA

TAF EPWA 300530Z 3006/3106 VRB03KT CAVOK
BECMG 3006/3009 26010KT
TEMPO 3008/3016 27015G27KT
BECMG 3017/3020 VRB02KT

Example: see airport list